createdAt,value
2018-08-07T07:03:33.218Z,55.20
2018-08-07T07:06:07.857Z,57.00
2018-08-07T07:08:36.170Z,55.60
2018-08-07T07:11:04.542Z,55.70
2018-08-07T07:13:32.913Z,55.40
2018-08-07T07:16:01.199Z,54.80
2018-08-07T07:18:29.483Z,53.80
2018-08-07T07:20:57.994Z,53.60
2018-08-07T07:23:26.205Z,54.30
2018-08-07T07:25:54.870Z,55.10
2018-08-07T07:28:23.081Z,53.80
2018-08-07T07:30:51.272Z,54.70
2018-08-07T07:33:19.583Z,53.20
2018-08-07T07:35:47.790Z,53.30
2018-08-07T07:38:15.977Z,53.40
2018-08-07T07:40:44.205Z,52.90
2018-08-07T07:43:12.317Z,53.40
2018-08-07T07:45:40.467Z,53.30
2018-08-07T07:48:08.628Z,54.00
2018-08-07T07:50:36.868Z,53.00
2018-08-07T07:53:05.017Z,52.40
2018-08-07T07:55:33.161Z,52.30
2018-08-07T07:58:01.324Z,52.10
2018-08-07T08:00:29.468Z,51.90
2018-08-07T08:02:57.710Z,51.40
2018-08-07T08:05:26.326Z,51.30
2018-08-07T08:07:54.820Z,51.50
2018-08-07T08:10:22.997Z,51.40
2018-08-07T08:12:51.149Z,52.00
2018-08-07T08:15:19.415Z,51.30
2018-08-07T08:17:48.207Z,51.50
2018-08-07T08:20:21.382Z,51.70
2018-08-07T08:22:50.435Z,51.60
2018-08-07T08:25:18.610Z,51.20
2018-08-07T08:27:46.844Z,50.40
2018-08-07T08:30:15.817Z,50.40
2018-08-07T08:32:44.564Z,50.30
2018-08-07T08:35:14.196Z,50.10
2018-08-07T08:37:42.963Z,49.80
2018-08-07T08:40:13.520Z,49.80
2018-08-07T08:42:41.712Z,49.90
2018-08-07T08:45:14.070Z,50.10
2018-08-07T08:47:42.833Z,49.70
2018-08-07T08:50:12.965Z,49.60
2018-08-07T08:52:41.533Z,49.50
2018-08-07T08:55:10.237Z,49.60
2018-08-07T08:57:39.040Z,49.80
2018-08-07T09:00:14.903Z,49.70
2018-08-07T09:02:44.492Z,49.80
2018-08-07T09:05:13.049Z,49.40
2018-08-07T09:07:41.645Z,49.00
2018-08-07T09:10:13.205Z,48.70
2018-08-07T09:12:41.507Z,48.40
2018-08-07T09:15:11.093Z,48.40
2018-08-07T09:17:39.272Z,47.10
2018-08-07T09:20:09.574Z,46.80
2018-08-07T09:22:37.777Z,46.50
2018-08-07T09:25:05.900Z,46.00
2018-08-07T09:27:35.128Z,45.40
2018-08-07T09:30:03.832Z,45.10
2018-08-07T09:32:32.028Z,43.80
2018-08-07T09:35:00.276Z,43.10
2018-08-07T09:37:28.440Z,43.00
2018-08-07T09:39:56.766Z,42.30
2018-08-07T09:42:24.909Z,41.50
2018-08-07T09:44:53.105Z,41.10
2018-08-07T09:47:21.260Z,40.60
2018-08-07T09:49:49.485Z,39.90
2018-08-07T09:52:17.696Z,39.50
2018-08-07T09:54:45.847Z,39.00
2018-08-07T09:57:14.037Z,38.80
2018-08-07T09:59:42.266Z,38.70
2018-08-07T10:02:15.669Z,38.50
2018-08-07T10:04:43.868Z,38.10
2018-08-07T10:07:12.033Z,37.70
2018-08-07T10:09:40.181Z,37.40
2018-08-07T10:12:08.356Z,37.50
2018-08-07T10:14:36.471Z,37.60
2018-08-07T10:17:04.677Z,37.90
2018-08-07T10:19:32.862Z,38.20
2018-08-07T10:22:01.078Z,38.90
2018-08-07T10:24:29.261Z,39.50
2018-08-07T10:26:57.448Z,39.80
2018-08-07T10:29:25.653Z,40.30
2018-08-07T10:31:53.828Z,40.70
2018-08-07T10:34:22.060Z,41.50
2018-08-07T10:36:50.244Z,41.80
2018-08-07T10:39:18.484Z,41.80
2018-08-07T10:41:46.649Z,42.10
2018-08-07T10:44:14.820Z,42.70
2018-08-07T10:46:43.368Z,42.50
2018-08-07T10:49:11.698Z,42.60
2018-08-07T10:51:39.878Z,43.30
2018-08-07T10:54:08.145Z,43.30
2018-08-07T10:56:36.373Z,42.90
2018-08-07T10:59:04.733Z,43.00
2018-08-07T11:01:33.061Z,43.10
2018-08-07T11:04:01.244Z,42.90
2018-08-07T11:06:29.450Z,43.20
2018-08-07T11:08:57.691Z,42.80
2018-08-07T11:11:25.929Z,43.20
2018-08-07T11:13:54.197Z,42.70
2018-08-07T11:16:22.380Z,42.90
2018-08-07T11:18:50.671Z,42.50
2018-08-07T11:21:18.819Z,42.60
2018-08-07T11:23:46.980Z,42.70
2018-08-07T11:26:15.229Z,42.20
2018-08-07T11:28:43.389Z,42.50
2018-08-07T11:31:11.615Z,42.40
2018-08-07T11:33:39.831Z,42.40
2018-08-07T11:36:08.040Z,42.40
2018-08-07T11:38:36.269Z,42.10
2018-08-07T11:41:04.484Z,42.20
2018-08-07T11:43:32.713Z,42.30
2018-08-07T11:46:00.902Z,41.70
2018-08-07T11:48:29.068Z,41.70
2018-08-07T11:50:57.257Z,42.00
2018-08-07T11:53:25.393Z,41.60
2018-08-07T11:55:53.648Z,41.70
2018-08-07T11:58:21.928Z,41.90
2018-08-07T12:00:50.122Z,42.00
2018-08-07T12:03:18.227Z,42.30
2018-08-07T12:05:46.492Z,41.80
2018-08-07T12:08:14.732Z,41.30
2018-08-07T12:10:42.905Z,41.60
2018-08-07T12:13:11.145Z,41.50
2018-08-07T12:15:39.312Z,42.00
2018-08-07T12:18:07.471Z,41.90
2018-08-07T12:20:35.748Z,42.60
2018-08-07T12:23:04.008Z,42.00
2018-08-07T12:25:32.189Z,42.30
2018-08-07T12:28:00.361Z,43.40
2018-08-07T12:30:29.492Z,50.90
2018-08-07T12:32:57.981Z,52.40
2018-08-07T12:35:26.251Z,52.20
2018-08-07T12:37:54.467Z,53.10
2018-08-07T12:40:26.427Z,54.50
2018-08-07T12:42:56.341Z,57.10
2018-08-07T12:45:25.260Z,56.60
2018-08-07T12:47:53.438Z,53.80
2018-08-07T12:50:21.650Z,51.40
2018-08-07T12:52:49.846Z,49.20
2018-08-07T12:55:19.382Z,48.00
2018-08-07T12:57:47.857Z,47.90
2018-08-07T13:00:17.456Z,47.60
2018-08-07T13:02:45.608Z,47.60
2018-08-07T13:05:13.822Z,48.20
2018-08-07T13:07:41.977Z,48.30
2018-08-07T13:10:11.733Z,47.40
2018-08-07T13:12:40.504Z,47.50
2018-08-07T13:15:09.757Z,47.00
2018-08-07T13:17:37.994Z,46.70
2018-08-07T13:20:06.994Z,46.30
2018-08-07T13:22:35.633Z,45.70
2018-08-07T13:25:04.365Z,45.60
2018-08-07T13:27:32.509Z,45.90
2018-08-07T13:30:00.705Z,45.20
2018-08-07T13:32:28.901Z,45.60
2018-08-07T13:34:57.161Z,44.00
2018-08-07T13:37:25.477Z,43.70
2018-08-07T13:39:53.632Z,43.80
2018-08-07T13:42:21.835Z,43.90
2018-08-07T13:44:50.038Z,43.70
2018-08-07T13:47:18.304Z,45.80
2018-08-07T13:49:46.628Z,46.00
2018-08-07T13:52:14.767Z,46.00
2018-08-07T13:54:42.938Z,45.50
2018-08-07T13:57:11.142Z,45.30
2018-08-07T13:59:39.373Z,45.70
2018-08-07T14:02:07.657Z,45.20
2018-08-07T14:04:35.805Z,44.00
2018-08-07T14:07:04.044Z,43.70
2018-08-07T14:09:32.268Z,43.90
2018-08-07T14:14:34.655Z,44.50
2018-08-07T14:17:02.894Z,44.60
2018-08-07T14:19:31.067Z,44.40
2018-08-07T14:21:59.208Z,44.10
2018-08-07T14:24:27.348Z,44.30
2018-08-07T14:26:55.680Z,43.90
2018-08-07T14:29:23.914Z,43.80
2018-08-07T14:31:52.142Z,42.60
2018-08-07T14:34:20.320Z,39.60
2018-08-07T14:36:48.598Z,39.60
2018-08-07T14:39:16.701Z,39.60
2018-08-07T14:41:44.818Z,40.40
2018-08-07T14:44:12.993Z,40.10
2018-08-07T14:46:41.300Z,39.60
2018-08-07T14:49:09.561Z,40.20
2018-08-07T14:51:37.840Z,41.00
2018-08-07T14:54:06.055Z,41.80
2018-08-07T14:56:34.232Z,42.40
2018-08-07T14:59:02.496Z,42.40
2018-08-07T15:01:30.648Z,41.10
2018-08-07T15:03:58.901Z,41.30
2018-08-07T15:06:27.263Z,41.50
2018-08-07T15:08:55.432Z,42.00
2018-08-07T15:11:23.634Z,42.30
2018-08-07T15:13:51.805Z,42.50
2018-08-07T15:16:20.025Z,41.90
2018-08-07T15:18:48.241Z,41.90
2018-08-07T15:21:16.464Z,41.70
2018-08-07T15:23:44.680Z,41.20
2018-08-07T15:26:12.953Z,41.00
2018-08-07T15:28:41.167Z,42.70
2018-08-07T15:31:09.307Z,42.80
2018-08-07T15:33:37.510Z,42.70
2018-08-07T15:36:05.721Z,43.40
2018-08-07T15:38:33.898Z,43.80
2018-08-07T15:41:02.123Z,44.10
2018-08-07T15:43:30.276Z,44.50
2018-08-07T15:45:58.482Z,44.60
2018-08-07T15:48:26.669Z,44.80
2018-08-07T15:50:54.910Z,45.00
2018-08-07T15:53:23.221Z,45.10
2018-08-07T15:55:51.439Z,45.10
2018-08-07T15:58:19.572Z,45.00
2018-08-07T16:00:47.751Z,45.10
2018-08-07T16:03:15.961Z,45.10
2018-08-07T16:05:44.175Z,45.00
2018-08-07T16:08:12.457Z,45.20
2018-08-07T16:10:40.576Z,45.20
2018-08-07T16:13:08.745Z,45.10
2018-08-07T16:15:36.940Z,45.10
2018-08-07T16:18:05.463Z,44.90
2018-08-07T16:20:33.700Z,44.70
2018-08-07T16:23:01.933Z,44.60
2018-08-07T16:25:30.125Z,44.20
2018-08-07T16:27:58.247Z,44.10
2018-08-07T16:30:26.831Z,43.30
2018-08-07T16:32:54.988Z,43.30
2018-08-07T16:35:23.253Z,42.80
2018-08-07T16:37:51.516Z,42.50
2018-08-07T16:40:21.624Z,41.90
2018-08-07T16:42:50.736Z,41.60
2018-08-07T16:45:20.005Z,41.20
2018-08-07T16:47:48.250Z,40.90
2018-08-07T16:50:17.876Z,40.50
2018-08-07T16:52:46.036Z,40.50
2018-08-07T16:55:14.338Z,40.30
2018-08-07T16:57:42.652Z,40.00
2018-08-07T17:00:12.099Z,40.00
2018-08-07T17:02:40.413Z,39.60
2018-08-07T17:05:10.909Z,39.40
2018-08-07T17:07:39.344Z,39.20
2018-08-07T17:10:11.061Z,39.10
2018-08-07T17:12:39.562Z,39.30
2018-08-07T17:15:09.204Z,39.50
2018-08-07T17:17:37.989Z,39.20
2018-08-07T17:20:07.125Z,39.20
2018-08-07T17:22:35.291Z,39.00
2018-08-07T17:25:03.520Z,39.10
2018-08-07T17:27:31.677Z,39.40
2018-08-07T17:29:59.876Z,39.40
2018-08-07T17:32:28.178Z,39.90
2018-08-07T17:34:56.520Z,40.10
2018-08-07T17:37:25.012Z,40.40
2018-08-07T17:39:53.189Z,40.10
2018-08-07T17:42:21.353Z,40.30
2018-08-07T17:44:49.583Z,40.50
2018-08-07T17:47:17.728Z,40.60
2018-08-07T17:49:45.929Z,40.70
2018-08-07T17:52:14.065Z,40.90
2018-08-07T17:54:42.180Z,40.90
2018-08-07T17:57:10.492Z,40.90
2018-08-07T17:59:38.661Z,41.10
2018-08-07T18:02:06.872Z,41.30
2018-08-07T18:04:35.055Z,41.50
2018-08-07T18:07:03.275Z,41.80
2018-08-07T18:09:31.457Z,41.90
2018-08-07T18:11:59.633Z,42.10
2018-08-07T18:14:27.804Z,42.20
2018-08-07T18:16:55.985Z,42.30
2018-08-07T18:19:24.153Z,42.50
2018-08-07T18:21:55.617Z,42.50
2018-08-07T18:24:23.805Z,42.70
2018-08-07T18:26:51.998Z,42.80
2018-08-07T18:29:20.160Z,43.00
2018-08-07T18:31:48.428Z,43.10
2018-08-07T18:34:17.664Z,43.20
2018-08-07T18:36:45.808Z,43.50
2018-08-07T18:39:13.955Z,43.60
2018-08-07T18:41:42.256Z,43.80
2018-08-07T18:44:10.300Z,43.90
2018-08-07T18:46:38.540Z,44.10
2018-08-07T18:49:06.741Z,44.30
2018-08-07T18:51:34.909Z,44.50
2018-08-07T18:54:03.082Z,44.60
2018-08-07T18:56:31.260Z,44.70
2018-08-07T18:58:59.448Z,44.80
2018-08-07T19:01:27.650Z,44.90
2018-08-07T19:03:55.801Z,45.00
2018-08-07T19:06:24.038Z,45.20
2018-08-07T19:08:52.145Z,45.60
2018-08-07T19:11:20.360Z,45.70
2018-08-07T19:13:48.566Z,46.50
2018-08-07T19:16:16.735Z,46.80
2018-08-07T19:18:44.898Z,46.80
2018-08-07T19:21:13.079Z,46.70
2018-08-07T19:23:41.333Z,46.50
2018-08-07T19:26:09.499Z,47.40
2018-08-07T19:28:37.668Z,47.80
2018-08-07T19:31:05.854Z,47.70
2018-08-07T19:33:34.016Z,47.40
2018-08-07T19:36:02.225Z,47.90
2018-08-07T19:38:30.414Z,47.90
2018-08-07T19:40:58.613Z,47.70
2018-08-07T19:43:26.747Z,47.60
2018-08-07T19:45:54.982Z,48.30
2018-08-07T19:48:23.190Z,48.50
2018-08-07T19:50:51.388Z,48.30
2018-08-07T19:53:19.628Z,48.60
2018-08-07T19:55:47.839Z,49.00
2018-08-07T19:58:15.941Z,49.10
2018-08-07T20:00:44.147Z,48.70
2018-08-07T20:03:12.381Z,48.40
2018-08-07T20:05:40.568Z,48.50
2018-08-07T20:08:08.757Z,48.60
2018-08-07T20:10:36.954Z,48.70
2018-08-07T20:13:05.242Z,48.80
2018-08-07T20:15:33.359Z,48.90
2018-08-07T20:18:01.521Z,48.90
2018-08-07T20:20:29.728Z,49.00
2018-08-07T20:22:58.012Z,49.00
2018-08-07T20:25:26.388Z,49.10
2018-08-07T20:27:54.605Z,49.60
2018-08-07T20:30:23.689Z,49.60
2018-08-07T20:32:53.439Z,49.80
2018-08-07T20:35:21.641Z,50.00
2018-08-07T20:37:49.874Z,50.30
2018-08-07T20:40:19.701Z,50.00
2018-08-07T20:42:48.096Z,50.70
2018-08-07T20:45:16.856Z,50.90
2018-08-07T20:47:45.074Z,51.20
2018-08-07T20:50:19.225Z,50.90
2018-08-07T20:52:47.557Z,50.90
2018-08-07T20:55:15.921Z,51.00
2018-08-07T20:57:44.163Z,51.00
2018-08-07T21:00:14.908Z,50.90
2018-08-07T21:02:43.149Z,51.00
2018-08-07T21:05:11.365Z,51.30
2018-08-07T21:07:39.588Z,51.40
2018-08-07T21:10:08.684Z,51.80
2018-08-07T21:12:36.974Z,51.30
2018-08-07T21:15:06.589Z,51.10
2018-08-07T21:17:34.693Z,50.90
2018-08-07T21:20:03.202Z,51.00
2018-08-07T21:22:31.452Z,51.10
2018-08-07T21:24:59.618Z,51.10
2018-08-07T21:27:27.801Z,51.30
2018-08-07T21:29:56.000Z,51.50
2018-08-07T21:32:24.165Z,51.80
2018-08-07T21:34:52.368Z,51.10
2018-08-07T21:37:20.625Z,50.90
2018-08-07T21:39:48.829Z,51.30
2018-08-07T21:42:17.038Z,50.80
2018-08-07T21:44:45.272Z,50.70
2018-08-07T21:47:13.461Z,50.70
2018-08-07T21:49:41.600Z,51.10
2018-08-07T21:52:09.785Z,51.30
2018-08-07T21:54:37.984Z,51.30
2018-08-07T21:57:06.182Z,51.40
2018-08-07T21:59:34.319Z,51.30
2018-08-07T22:02:02.510Z,51.80
2018-08-07T22:04:30.807Z,51.60
2018-08-07T22:06:58.996Z,51.10
2018-08-07T22:09:27.254Z,50.90
2018-08-07T22:11:55.428Z,51.10
2018-08-07T22:14:23.596Z,50.80
2018-08-07T22:16:51.854Z,50.40
2018-08-07T22:19:20.050Z,50.70
2018-08-07T22:21:48.277Z,50.70
2018-08-07T22:24:16.408Z,50.70
2018-08-07T22:26:44.658Z,51.00
2018-08-07T22:29:12.864Z,51.10
2018-08-07T22:31:41.087Z,51.60
2018-08-07T22:34:09.213Z,51.50
2018-08-07T22:36:37.405Z,52.20
2018-08-07T22:39:07.844Z,52.20
2018-08-07T22:41:36.236Z,52.00
2018-08-07T22:44:04.549Z,51.80
2018-08-07T22:46:32.749Z,51.70
2018-08-07T22:49:39.884Z,51.40
2018-08-07T22:52:08.084Z,51.30
2018-08-07T22:54:36.253Z,51.30
2018-08-07T22:57:05.204Z,51.80
2018-08-07T22:59:33.410Z,52.10
2018-08-07T23:02:01.610Z,51.80
2018-08-07T23:04:36.476Z,51.30
2018-08-07T23:07:04.600Z,51.40
2018-08-07T23:09:32.789Z,51.40
2018-08-07T23:12:00.988Z,51.40
2018-08-07T23:14:29.134Z,51.40
2018-08-07T23:16:57.377Z,51.30
2018-08-07T23:19:25.531Z,51.30
2018-08-07T23:21:53.708Z,51.30
2018-08-07T23:24:21.876Z,50.90
2018-08-07T23:26:50.066Z,50.80
2018-08-07T23:29:18.304Z,50.50
2018-08-07T23:31:46.903Z,50.40
2018-08-07T23:34:15.126Z,50.40
2018-08-07T23:36:43.260Z,50.30
2018-08-07T23:39:11.537Z,50.30
2018-08-07T23:41:39.740Z,50.20
2018-08-07T23:44:07.897Z,50.10
2018-08-07T23:46:36.062Z,50.00
2018-08-07T23:49:04.221Z,50.40
2018-08-07T23:51:32.384Z,50.50
2018-08-07T23:54:00.568Z,50.80
2018-08-07T23:56:28.806Z,51.00
2018-08-07T23:58:56.982Z,50.80
